EGLL

London Heathrow Airport

London, United Kingdom
TAF EGLL 171052Z 1712/1818 24010KT 9999 SCT048 PROB30 TEMPO 1803/1807 BKN014
Issued Valid From Valid To
Aug-17 @ 10:52 UTC
(4 hours ago)
Aug-17 @ 12:00 UTC
(3 hours ago)
Aug-18 @ 18:00 UTC
(-1 days ago)
Aug-17 @ 12:00 to Aug-18 @ 18:00
TAF EGLL 171052Z 1712/1818 24010KT 9999 SCT048
Wind Visibility Clouds
240° at 10 knots 10,000+ meters
  • Scattered at 4,800' AGL
Temporary  (Probability 30%) Aug-18 @ 03:00 to Aug-18 @ 07:00
PROB30 TEMPO 1803/1807 BKN014
Clouds
  • Broken at 1,400' AGL
TAF EGLL 171052Z 1712/1818 24010KT 9999 SCT048 PROB30 TEMPO 1803/1807 BKN014
Issued Aug-17 @ 10:52 UTC
(4 hours ago)
Valid From Aug-17 @ 12:00 UTC
(3 hours ago)
Valid To Aug-18 @ 18:00 UTC
(-1 days ago)
Aug-17 @ 12:00 - Aug-18 @ 18:00
Wind Visibility
240° at 10 knots 10,000+ meters
Clouds
  • Scattered at 4,800' AGL
Probability 30% Temporary Aug-18 @ 03:00 - Aug-18 @ 07:00
Clouds
  • Broken at 1,400' AGL